Time;durP1;ratioP1;P1;durP2;ratioP2;P2;SDS_P1;SDS_P2;PMS_P1;PMS_P2;Temp;Humidity;BMP_temperature;BMP_pressure;BME280_temperature;BME280_humidity;BME280_pressure;Samples;Min_cycle;Max_cycle;Signal;HPM_P1;HPM_P2
2022/05/19 00:02:06;;;;;;;8.63;6.18;;;21.20;77.20;;;;;;5031971;28;20032;-60
2022/05/19 00:04:32;;;;;;;8.27;7.22;;;21.20;77.40;;;;;;5037019;28;20041;-59
2022/05/19 00:06:58;;;;;;;10.63;7.55;;;21.10;77.50;;;;;;5030588;28;20025;-60
2022/05/19 00:09:24;;;;;;;8.45;7.20;;;21.10;77.60;;;;;;5031788;28;20032;-60
2022/05/19 00:11:51;;;;;;;8.15;6.68;;;21.10;77.80;;;;;;5031711;28;20508;-60
2022/05/19 00:14:17;;;;;;;8.35;7.32;;;21.00;77.80;;;;;;5033025;28;20025;-59
2022/05/19 00:16:43;;;;;;;9.30;7.72;;;21.00;78.00;;;;;;5031556;28;20112;-60
2022/05/19 00:19:10;;;;;;;9.38;6.90;;;20.90;78.10;;;;;;5042301;28;20494;-59
2022/05/19 00:21:36;;;;;;;11.02;8.23;;;20.90;78.30;;;;;;5034343;28;20112;-60
2022/05/19 00:24:02;;;;;;;10.10;8.27;;;20.90;78.40;;;;;;5031738;28;20481;-60
2022/05/19 00:26:27;;;;;;;10.50;9.05;;;20.90;78.60;;;;;;5040078;28;20032;-60
2022/05/19 00:28:53;;;;;;;10.75;8.90;;;20.80;78.80;;;;;;5028755;28;20447;-60
2022/05/19 00:31:18;;;;;;;15.20;10.57;;;20.80;78.90;;;;;;5034394;28;20025;-60
2022/05/19 00:33:44;;;;;;;10.80;8.77;;;20.80;79.30;;;;;;5031447;28;20382;-60
2022/05/19 00:36:15;;;;;;;14.63;11.13;;;20.80;79.40;;;;;;5043166;28;20048;-60
2022/05/19 00:38:41;;;;;;;16.15;11.82;;;20.80;79.70;;;;;;5032899;28;20024;-60
2022/05/19 00:41:07;;;;;;;18.90;12.85;;;20.70;80.10;;;;;;5031244;28;20503;-60
2022/05/19 00:43:40;;;;;;;15.80;11.60;;;20.70;80.60;;;;;;5039350;28;20040;-59
2022/05/19 00:46:14;;;;;;;15.23;10.90;;;20.60;80.70;;;;;;5039385;28;20021;-59
2022/05/19 00:48:59;;;;;;;14.70;13.02;;;20.60;81.00;;;;;;5028619;28;20021;-60
2022/05/19 00:51:33;;;;;;;16.80;13.32;;;20.60;81.60;;;;;;5036434;28;20493;-60
2022/05/19 00:53:59;;;;;;;15.48;12.75;;;20.50;81.80;;;;;;5031498;28;20017;-60
2022/05/19 00:56:37;;;;;;;12.68;10.30;;;20.50;82.10;;;;;;5028460;28;20473;-60
2022/05/19 00:59:12;;;;;;;18.77;13.68;;;20.50;81.90;;;;;;5036517;28;20381;-60
2022/05/19 01:01:43;;;;;;;18.23;13.35;;;20.50;82.30;;;;;;5035834;28;20056;-60
2022/05/19 01:04:15;;;;;;;18.48;12.35;;;20.40;82.70;;;;;;5036816;28;20017;-60
2022/05/19 01:06:46;;;;;;;15.30;12.88;;;20.40;82.90;;;;;;5030156;28;20778;-60
2022/05/19 01:09:14;;;;;;;15.30;11.90;;;20.30;83.20;;;;;;5035253;28;20122;-60
2022/05/19 01:11:41;;;;;;;14.07;11.45;;;20.30;83.40;;;;;;5034742;28;20033;-60
2022/05/19 01:14:07;;;;;;;15.02;11.93;;;20.30;83.40;;;;;;5037486;28;20115;-60
2022/05/19 01:16:33;;;;;;;13.50;10.95;;;20.30;83.60;;;;;;5040551;28;20511;-60
2022/05/19 01:18:59;;;;;;;14.40;10.00;;;20.20;83.60;;;;;;5039420;28;20033;-60
2022/05/19 01:21:28;;;;;;;16.02;10.85;;;20.30;83.70;;;;;;5052822;28;20370;-60
2022/05/19 01:24:02;;;;;;;13.93;11.13;;;20.30;83.70;;;;;;5034778;28;20477;-60
2022/05/19 01:26:28;;;;;;;17.23;12.32;;;20.30;83.70;;;;;;5031856;28;20029;-60
2022/05/19 01:28:57;;;;;;;13.32;10.52;;;20.20;83.80;;;;;;5038288;28;20029;-60
2022/05/19 01:31:32;;;;;;;12.20;10.60;;;20.20;84.50;;;;;;5038715;28;20052;-60
2022/05/19 01:33:58;;;;;;;13.07;10.75;;;20.20;83.90;;;;;;5030505;28;20017;-60
2022/05/19 01:36:24;;;;;;;14.57;10.80;;;20.20;84.20;;;;;;5039636;28;20079;-60
2022/05/19 01:39:03;;;;;;;14.05;12.55;;;20.20;84.40;;;;;;5034663;28;20033;-59
2022/05/19 01:41:35;;;;;;;12.70;9.73;;;20.10;84.30;;;;;;5037300;28;20041;-59
2022/05/19 01:44:25;;;;;;;13.52;11.60;;;20.10;84.50;;;;;;5034446;28;20064;-60
2022/05/19 01:47:30;;;;;;;15.52;11.90;;;20.10;84.50;;;;;;5031617;28;20030;-59
2022/05/19 01:50:03;;;;;;;17.63;11.85;;;20.10;84.80;;;;;;5043380;28;20034;-60
2022/05/19 01:52:45;;;;;;;15.82;10.50;;;20.00;85.20;;;;;;5034110;28;20409;-60
2022/05/19 01:55:24;;;;;;;13.48;10.05;;;20.00;85.30;;;;;;5031213;28;20021;-60
2022/05/19 01:58:08;;;;;;;11.73;9.60;;;20.00;85.40;;;;;;5034509;28;20029;-60
2022/05/19 02:00:33;;;;;;;11.70;9.73;;;19.90;85.50;;;;;;5036820;28;20065;-60
2022/05/19 02:03:20;;;;;;;13.85;11.98;;;19.90;85.60;;;;;;5039842;28;20079;-59
2022/05/19 02:06:19;;;;;;;13.25;11.00;;;19.90;85.70;;;;;;5033969;28;20037;-60
2022/05/19 02:08:52;;;;;;;13.30;10.85;;;19.90;85.80;;;;;;5034063;28;20104;-59
2022/05/19 02:11:29;;;;;;;12.93;10.68;;;19.80;86.20;;;;;;5039612;28;20100;-60
2022/05/19 02:13:57;;;;;;;13.18;10.65;;;19.80;86.40;;;;;;5037983;28;20477;-59
2022/05/19 02:16:23;;;;;;;12.93;10.73;;;19.80;86.60;;;;;;5043046;28;20487;-60
2022/05/19 02:18:50;;;;;;;17.33;14.85;;;19.80;86.60;;;;;;5036725;28;20093;-60
2022/05/19 02:21:18;;;;;;;23.30;16.90;;;19.80;87.50;;;;;;5034958;28;20492;-59
2022/05/19 02:23:45;;;;;;;17.98;13.38;;;19.80;87.80;;;;;;5039780;28;20041;-59
2022/05/19 02:26:10;;;;;;;14.18;12.55;;;19.80;88.00;;;;;;5039335;28;20032;-60
2022/05/19 02:28:47;;;;;;;15.00;11.95;;;19.80;87.80;;;;;;5044691;28;20024;-59
2022/05/19 02:31:13;;;;;;;16.80;14.43;;;19.80;87.60;;;;;;5044070;28;20025;-59
2022/05/19 02:33:38;;;;;;;21.20;16.55;;;19.80;87.90;;;;;;5045020;28;20079;-59
2022/05/19 02:36:05;;;;;;;19.38;15.35;;;19.80;88.30;;;;;;5032612;28;20070;-59
2022/05/19 02:38:30;;;;;;;19.83;15.35;;;19.80;88.50;;;;;;5045362;28;20029;-60
2022/05/19 02:40:56;;;;;;;16.92;13.63;;;19.80;88.60;;;;;;5030501;28;20043;-59
2022/05/19 02:43:22;;;;;;;20.98;15.98;;;19.70;88.70;;;;;;5030567;28;20079;-60
2022/05/19 02:45:48;;;;;;;17.67;15.80;;;19.70;89.20;;;;;;5048165;28;20021;-60
2022/05/19 02:48:15;;;;;;;17.90;16.00;;;19.70;89.40;;;;;;5031643;28;20028;-60
2022/05/19 02:50:42;;;;;;;20.67;16.50;;;19.70;89.70;;;;;;5031495;28;20034;-60
2022/05/19 02:53:08;;;;;;;18.80;15.77;;;19.70;90.00;;;;;;5047725;28;20033;-59
2022/05/19 02:55:34;;;;;;;21.27;17.48;;;19.60;90.00;;;;;;5046001;28;20029;-59
2022/05/19 02:58:00;;;;;;;18.73;16.20;;;19.60;90.20;;;;;;5037733;28;20052;-59
2022/05/19 03:00:26;;;;;;;17.77;15.88;;;19.60;90.20;;;;;;5034507;28;20468;-60
2022/05/19 03:02:59;;;;;;;20.65;15.55;;;19.60;90.30;;;;;;5036195;28;20021;-60
2022/05/19 03:05:28;;;;;;;17.55;15.35;;;19.60;90.70;;;;;;5039810;28;20068;-59
2022/05/19 03:07:54;;;;;;;;;;;19.60;90.50;;;;;;5033104;28;20083;-59
2022/05/19 03:10:20;;;;;;;18.75;16.73;;;19.50;90.60;;;;;;5045541;28;20276;-60
2022/05/19 03:12:45;;;;;;;21.20;17.42;;;19.50;90.90;;;;;;5031358;28;20036;-60
2022/05/19 03:15:11;;;;;;;22.50;17.85;;;19.50;91.00;;;;;;5033068;28;20233;-59
2022/05/19 03:17:37;;;;;;;20.58;16.95;;;19.50;91.10;;;;;;5034814;28;20437;-60
2022/05/19 03:20:06;;;;;;;21.85;18.00;;;19.50;91.10;;;;;;5040184;28;20469;-60
2022/05/19 03:22:33;;;;;;;17.63;15.68;;;19.50;91.10;;;;;;5044708;28;20037;-60
2022/05/19 03:24:58;;;;;;;17.40;14.80;;;19.60;91.10;;;;;;5035014;28;20017;-59
2022/05/19 03:27:24;;;;;;;15.15;13.30;;;19.70;91.00;;;;;;5036050;28;20048;-60
2022/05/19 03:29:50;;;;;;;19.23;15.35;;;19.70;90.80;;;;;;5037679;28;20091;-60
2022/05/19 03:32:17;;;;;;;15.23;13.43;;;19.80;90.70;;;;;;5037763;28;20028;-59
2022/05/19 03:34:42;;;;;;;16.05;13.27;;;19.80;90.60;;;;;;5034146;28;20544;-60
2022/05/19 03:37:08;;;;;;;15.30;13.50;;;19.90;90.60;;;;;;5034871;28;20456;-60
2022/05/19 03:39:35;;;;;;;15.73;13.10;;;20.00;90.50;;;;;;5032050;28;20117;-60
2022/05/19 03:42:01;;;;;;;15.15;13.30;;;20.00;90.40;;;;;;5034062;28;20373;-60
2022/05/19 03:44:27;;;;;;;18.98;13.52;;;20.00;90.30;;;;;;5035531;28;20493;-60
2022/05/19 03:46:53;;;;;;;14.85;12.32;;;20.10;90.30;;;;;;5028600;28;20047;-60
2022/05/19 03:49:18;;;;;;;12.68;10.80;;;20.10;90.20;;;;;;5031414;28;20428;-60
2022/05/19 03:51:44;;;;;;;13.73;10.05;;;20.10;90.10;;;;;;5037257;28;20056;-60
2022/05/19 03:54:10;;;;;;;11.35;9.45;;;20.20;90.10;;;;;;5028951;28;20017;-59
2022/05/19 03:56:36;;;;;;;10.25;9.13;;;20.20;90.00;;;;;;5046501;28;20488;-60
2022/05/19 03:59:02;;;;;;;11.77;9.57;;;20.30;90.00;;;;;;5034662;28;20039;-60
2022/05/19 04:01:29;;;;;;;8.57;6.78;;;20.30;90.00;;;;;;5037087;28;20135;-59
2022/05/19 04:03:55;;;;;;;9.40;6.32;;;20.30;89.80;;;;;;5031939;28;20503;-60
2022/05/19 04:06:21;;;;;;;8.75;5.88;;;20.30;89.70;;;;;;5031519;28;20102;-60
2022/05/19 04:08:46;;;;;;;7.15;5.15;;;20.30;89.60;;;;;;5039813;28;20389;-59
2022/05/19 04:11:12;;;;;;;8.15;5.13;;;20.30;89.50;;;;;;5037208;28;20108;-59
2022/05/19 04:13:38;;;;;;;4.88;4.32;;;20.40;89.40;;;;;;5028988;28;20043;-59
2022/05/19 04:16:04;;;;;;;6.75;4.28;;;20.40;89.20;;;;;;5049151;28;20048;-60
2022/05/19 04:18:29;;;;;;;7.65;4.80;;;20.40;89.10;;;;;;5034746;28;20113;-59
2022/05/19 04:20:55;;;;;;;5.38;4.28;;;20.40;89.00;;;;;;5032077;28;20108;-60
2022/05/19 04:23:21;;;;;;;6.50;4.13;;;20.40;88.80;;;;;;5028921;28;20087;-60
2022/05/19 04:25:47;;;;;;;3.90;3.50;;;20.50;88.70;;;;;;5039616;28;20420;-60
2022/05/19 04:28:14;;;;;;;5.13;3.40;;;20.50;88.50;;;;;;5032230;28;20104;-60
2022/05/19 04:30:41;;;;;;;3.67;2.97;;;20.50;88.30;;;;;;5036004;28;20021;-60
2022/05/19 04:33:07;;;;;;;4.72;3.35;;;20.50;88.20;;;;;;5035401;28;20495;-59
2022/05/19 04:35:33;;;;;;;3.85;2.70;;;20.50;88.10;;;;;;5030833;28;20440;-60
2022/05/19 04:38:00;;;;;;;3.25;2.95;;;20.50;88.00;;;;;;5031401;28;20021;-59
2022/05/19 04:40:26;;;;;;;2.70;1.98;;;20.50;87.90;;;;;;5033885;28;20026;-59
2022/05/19 04:42:53;;;;;;;3.25;2.17;;;20.50;87.70;;;;;;5034142;28;20056;-60
2022/05/19 04:45:20;;;;;;;2.83;1.98;;;20.60;87.50;;;;;;5028458;28;20056;-59
2022/05/19 04:47:45;;;;;;;3.88;1.90;;;20.50;87.10;;;;;;5036436;28;20272;-60
2022/05/19 04:50:12;;;;;;;4.10;1.95;;;20.60;86.80;;;;;;5047906;28;20453;-60
2022/05/19 04:52:38;;;;;;;3.35;1.70;;;20.60;86.50;;;;;;5042940;28;20049;-60
2022/05/19 04:55:07;;;;;;;3.35;1.42;;;20.60;86.20;;;;;;5039270;28;20416;-59
2022/05/19 04:57:32;;;;;;;2.28;1.55;;;20.60;86.00;;;;;;5032305;28;20049;-60
2022/05/19 04:59:58;;;;;;;3.80;2.15;;;20.60;85.90;;;;;;5046394;28;20139;-60
2022/05/19 05:02:23;;;;;;;2.08;1.70;;;20.50;85.90;;;;;;5032534;28;20535;-59
2022/05/19 05:04:49;;;;;;;3.55;2.05;;;20.40;86.10;;;;;;5034820;28;20021;-60
2022/05/19 05:07:14;;;;;;;3.35;1.60;;;20.50;86.30;;;;;;5032083;28;20061;-60
2022/05/19 05:09:40;;;;;;;3.35;1.55;;;20.40;86.10;;;;;;5039369;28;20039;-60
2022/05/19 05:12:06;;;;;;;3.05;1.50;;;20.50;86.00;;;;;;5036000;28;20033;-60
2022/05/19 05:14:32;;;;;;;2.40;1.30;;;20.60;86.00;;;;;;5034759;28;20029;-60
2022/05/19 05:16:57;;;;;;;1.83;1.10;;;20.60;85.80;;;;;;5032187;28;20034;-59
2022/05/19 05:19:24;;;;;;;1.63;1.02;;;20.60;85.50;;;;;;5034735;28;20029;-59
2022/05/19 05:21:52;;;;;;;3.58;1.10;;;20.60;85.30;;;;;;5034686;28;20022;-59
2022/05/19 05:24:17;;;;;;;1.50;1.13;;;20.70;85.20;;;;;;5039064;28;20083;-60
2022/05/19 05:26:43;;;;;;;4.05;1.38;;;20.70;85.10;;;;;;5037377;28;20455;-60
2022/05/19 05:29:09;;;;;;;2.42;1.52;;;20.70;85.10;;;;;;5035595;28;20029;-59
2022/05/19 05:31:35;;;;;;;2.10;1.10;;;20.70;85.00;;;;;;5035644;28;20087;-60
2022/05/19 05:34:01;;;;;;;1.55;1.08;;;20.70;85.00;;;;;;5036209;28;20017;-59
2022/05/19 05:36:27;;;;;;;2.55;1.33;;;20.70;85.00;;;;;;5047723;28;20029;-60
2022/05/19 05:38:52;;;;;;;1.60;1.02;;;20.70;85.20;;;;;;5055540;28;20025;-60
2022/05/19 05:41:18;;;;;;;1.90;1.25;;;20.70;85.20;;;;;;5047562;28;20029;-60
2022/05/19 05:43:43;;;;;;;2.05;1.10;;;20.70;85.10;;;;;;5035129;28;20053;-59
2022/05/19 05:46:12;;;;;;;2.25;1.00;;;20.70;84.90;;;;;;5035512;28;20100;-59
2022/05/19 05:48:37;;;;;;;1.80;0.95;;;20.80;84.80;;;;;;5035493;28;20028;-60
2022/05/19 05:51:08;;;;;;;2.08;1.25;;;20.70;84.60;;;;;;5035386;28;20401;-60
2022/05/19 05:53:36;;;;;;;3.10;1.40;;;20.80;84.50;;;;;;5035542;28;20431;-60
2022/05/19 05:56:04;;;;;;;2.03;1.20;;;20.70;84.50;;;;;;5035232;28;20032;-59
2022/05/19 05:58:29;;;;;;;2.25;1.20;;;20.70;84.60;;;;;;5034910;28;20021;-60
2022/05/19 06:00:55;;;;;;;2.42;1.25;;;20.70;84.70;;;;;;5047039;28;20029;-60
2022/05/19 06:03:21;;;;;;;2.33;1.40;;;20.70;85.60;;;;;;5055339;28;20110;-60
2022/05/19 06:05:47;;;;;;;2.47;1.63;;;20.60;85.40;;;;;;5055180;28;20025;-59
2022/05/19 06:08:12;;;;;;;3.30;2.03;;;20.60;85.60;;;;;;5055160;28;20032;-59
2022/05/19 06:10:38;;;;;;;2.17;1.38;;;20.60;86.70;;;;;;5055053;28;20021;-60
2022/05/19 06:13:05;;;;;;;6.20;1.63;;;20.60;87.10;;;;;;5047230;28;20025;-59
2022/05/19 06:15:30;;;;;;;3.90;1.92;;;20.60;87.50;;;;;;5050444;28;20041;-60
2022/05/19 06:17:56;;;;;;;2.72;2.00;;;20.60;87.80;;;;;;5053101;28;20025;-59
2022/05/19 06:20:23;;;;;;;3.28;1.58;;;20.60;88.40;;;;;;5048166;28;20029;-59
2022/05/19 06:22:49;;;;;;;2.85;1.85;;;20.50;88.80;;;;;;5049191;28;20025;-60
2022/05/19 06:25:19;;;;;;;4.13;1.73;;;20.50;89.10;;;;;;5051240;28;20024;-59
2022/05/19 06:27:44;;;;;;;4.78;1.70;;;20.50;89.20;;;;;;5050098;28;20025;-59
2022/05/19 06:30:12;;;;;;;2.95;2.03;;;20.50;89.30;;;;;;5054583;28;20036;-59
2022/05/19 06:32:39;;;;;;;2.78;1.70;;;20.50;89.30;;;;;;5054619;28;20032;-59
2022/05/19 06:35:06;;;;;;;2.50;1.77;;;20.40;89.40;;;;;;5054534;28;20029;-60
2022/05/19 06:37:32;;;;;;;3.58;1.50;;;20.50;89.30;;;;;;5054649;28;20480;-59
2022/05/19 06:39:58;;;;;;;4.13;1.70;;;20.60;89.10;;;;;;5053265;28;20036;-59
2022/05/19 06:42:23;;;;;;;3.25;1.40;;;20.70;88.40;;;;;;5054371;28;20481;-60
2022/05/19 06:44:50;;;;;;;2.67;1.77;;;20.70;88.10;;;;;;5054386;28;20071;-59
2022/05/19 06:47:16;;;;;;;3.13;1.25;;;20.90;87.90;;;;;;5053262;28;20472;-60
2022/05/19 06:49:43;;;;;;;2.50;1.25;;;20.90;87.60;;;;;;5054344;28;20184;-60
2022/05/19 06:52:14;;;;;;;2.47;1.10;;;21.10;87.40;;;;;;5054210;28;20114;-60
2022/05/19 06:54:44;;;;;;;1.67;1.13;;;21.20;86.80;;;;;;5054273;28;20028;-60
2022/05/19 06:57:09;;;;;;;2.00;1.05;;;21.30;86.60;;;;;;5054159;28;20505;-68
2022/05/19 06:59:35;;;;;;;1.85;1.10;;;21.40;86.30;;;;;;5052626;28;20035;-59
2022/05/19 07:02:01;;;;;;;1.67;1.13;;;21.40;86.10;;;;;;5054167;28;20520;-59
2022/05/19 07:04:26;;;;;;;2.45;1.10;;;21.50;85.80;;;;;;5054127;28;20100;-59
2022/05/19 07:06:52;;;;;;;2.10;1.10;;;21.60;85.50;;;;;;5053967;28;20128;-59
2022/05/19 07:09:17;;;;;;;2.17;1.30;;;21.70;85.10;;;;;;5052921;28;20397;-59
2022/05/19 07:11:43;;;;;;;1.95;1.20;;;21.80;84.70;;;;;;5053476;28;20025;-59
2022/05/19 07:14:09;;;;;;;1.45;0.80;;;21.90;84.40;;;;;;5053688;28;20097;-59
2022/05/19 07:16:35;;;;;;;2.42;0.95;;;22.00;84.10;;;;;;5052451;28;20401;-58
2022/05/19 07:21:47;;;;;;;1.83;1.00;;;22.00;83.80;;;;;;5053578;28;20103;-59
2022/05/19 07:24:15;;;;;;;2.00;1.50;;;22.10;83.80;;;;;;5045170;28;20069;-59
2022/05/19 07:26:42;;;;;;;2.10;1.30;;;22.10;83.70;;;;;;5031736;28;20104;-59
2022/05/19 07:29:08;;;;;;;2.25;1.15;;;22.20;83.50;;;;;;5047306;28;20435;-59
2022/05/19 07:31:34;;;;;;;1.98;1.23;;;22.30;83.30;;;;;;5047761;28;20017;-59
2022/05/19 07:34:00;;;;;;;1.73;1.25;;;22.40;83.10;;;;;;5051816;28;20067;-59
2022/05/19 07:36:25;;;;;;;2.17;1.23;;;22.40;82.80;;;;;;5051621;28;20052;-59
2022/05/19 07:38:53;;;;;;;1.77;1.30;;;22.50;82.80;;;;;;5071067;28;20413;-59
2022/05/19 07:41:18;;;;;;;4.30;1.70;;;22.50;82.60;;;;;;5072025;28;20488;-59
2022/05/19 07:43:44;;;;;;;3.25;1.63;;;22.40;83.10;;;;;;5072332;28;20066;-59
2022/05/19 07:46:11;;;;;;;2.95;2.03;;;22.40;83.10;;;;;;5073227;28;20108;-59
2022/05/19 07:48:38;;;;;;;3.25;1.85;;;22.30;83.70;;;;;;5060242;28;20033;-59
2022/05/19 07:51:06;;;;;;;4.25;1.60;;;22.30;84.10;;;;;;5052763;28;20071;-59
2022/05/19 07:53:32;;;;;;;2.33;1.52;;;22.40;84.20;;;;;;5052961;28;20021;-59
2022/05/19 07:55:58;;;;;;;3.13;1.45;;;22.50;84.00;;;;;;5051737;28;20033;-59
2022/05/19 07:58:24;;;;;;;3.20;1.92;;;22.50;83.60;;;;;;5047843;28;20049;-59
2022/05/19 08:00:52;;;;;;;4.93;2.60;;;22.50;83.10;;;;;;5046995;28;20027;-59
2022/05/19 08:03:19;;;;;;;3.40;2.42;;;22.50;82.60;;;;;;5051954;28;20414;-59
2022/05/19 08:05:44;;;;;;;3.72;2.28;;;22.50;82.30;;;;;;5048354;28;20104;-59
2022/05/19 08:08:10;;;;;;;2.22;1.45;;;22.60;82.60;;;;;;5048348;28;20052;-59
2022/05/19 08:10:36;;;;;;;3.15;1.27;;;22.70;82.70;;;;;;5052622;28;20043;-59
2022/05/19 08:15:47;;;;;;;3.05;2.25;;;22.90;81.80;;;;;;5052654;28;20483;-59
2022/05/19 08:18:14;;;;;;;4.00;2.92;;;22.90;79.90;;;;;;5051486;28;20028;-59
2022/05/19 08:20:46;;;;;;;4.70;3.00;;;23.00;80.80;;;;;;5052043;28;20095;-59
2022/05/19 08:23:16;;;;;;;4.72;3.30;;;23.00;79.50;;;;;;5051626;28;20024;-59
2022/05/19 08:25:43;;;;;;;4.18;3.28;;;22.90;80.30;;;;;;5052077;28;20102;-59
2022/05/19 08:28:09;;;;;;;3.13;2.75;;;22.80;80.80;;;;;;5051255;28;20495;-59
2022/05/19 08:30:42;;;;;;;4.75;3.17;;;22.90;80.30;;;;;;5051650;28;20025;-59
2022/05/19 08:33:08;;;;;;;3.70;2.80;;;22.90;79.80;;;;;;5050628;28;20049;-60
2022/05/19 08:35:34;;;;;;;5.53;3.67;;;22.90;80.90;;;;;;5050247;28;20061;-59
2022/05/19 08:37:59;;;;;;;7.03;4.25;;;23.00;80.20;;;;;;5050908;28;20028;-59
2022/05/19 08:40:25;;;;;;;6.30;4.55;;;23.10;79.30;;;;;;5052336;28;20025;-59
2022/05/19 08:42:58;;;;;;;5.72;3.55;;;23.20;77.90;;;;;;5050337;28;20032;-59
2022/05/19 08:45:31;;;;;;;4.78;3.25;;;23.30;77.60;;;;;;5037718;28;20022;-59
2022/05/19 08:48:24;;;;;;;3.35;2.88;;;23.30;77.70;;;;;;5049910;28;20047;-59
2022/05/19 08:50:52;;;;;;;4.00;3.58;;;23.50;77.70;;;;;;5044671;28;20049;-59
2022/05/19 08:53:31;;;;;;;3.95;3.47;;;23.60;76.90;;;;;;5052373;28;20108;-59
2022/05/19 08:56:04;;;;;;;4.27;3.73;;;23.70;77.00;;;;;;5050146;28;20036;-59
2022/05/19 08:58:38;;;;;;;5.80;3.40;;;23.80;77.10;;;;;;5037159;28;20029;-59
2022/05/19 09:01:17;;;;;;;4.30;3.85;;;24.00;76.70;;;;;;5044998;28;20484;-59
2022/05/19 09:03:54;;;;;;;6.27;4.53;;;24.10;75.00;;;;;;5051296;28;20049;-59
2022/05/19 09:07:56;;;;;;;7.07;4.97;;;24.20;75.00;;;;;;5050307;28;20021;-59
2022/05/19 09:09:51;;;;;;;6.18;4.32;;;24.30;73.10;;;;;;5047208;28;20598;-59
2022/05/19 09:12:20;;;;;;;5.22;4.68;;;24.20;74.50;;;;;;5049363;28;20032;-59
2022/05/19 09:14:47;;;;;;;4.90;4.18;;;24.30;74.10;;;;;;5050023;28;20036;-59
2022/05/19 09:17:12;;;;;;;7.45;4.97;;;24.40;74.00;;;;;;5050560;28;20114;-59
2022/05/19 09:19:52;;;;;;;7.30;4.93;;;24.60;73.20;;;;;;5045460;28;20061;-59
2022/05/19 09:22:21;;;;;;;6.45;4.75;;;24.80;72.90;;;;;;5049571;28;20100;-59
2022/05/19 09:24:50;;;;;;;6.68;4.40;;;24.80;70.90;;;;;;5050416;28;20024;-59
2022/05/19 09:27:16;;;;;;;4.50;3.93;;;24.90;69.90;;;;;;5047033;28;20021;-59
2022/05/19 09:29:48;;;;;;;5.93;4.78;;;24.90;70.10;;;;;;5047652;28;20267;-59
2022/05/19 09:32:45;;;;;;;5.35;4.53;;;25.00;69.40;;;;;;5050116;28;20021;-59
2022/05/19 09:35:18;;;;;;;5.72;4.60;;;25.10;69.40;;;;;;5050903;28;20025;-59
2022/05/19 09:37:45;;;;;;;4.63;4.18;;;25.20;70.10;;;;;;5056052;28;20017;-59
2022/05/19 09:40:10;;;;;;;4.43;4.03;;;25.30;68.90;;;;;;5055803;28;20024;-59
2022/05/19 09:42:48;;;;;;;4.70;3.90;;;25.20;68.10;;;;;;5055392;28;20021;-59
2022/05/19 09:45:15;;;;;;;6.75;3.42;;;25.30;67.70;;;;;;5055468;28;20384;-59
2022/05/19 09:47:44;;;;;;;7.03;2.83;;;25.30;67.50;;;;;;5055086;28;20091;-59
2022/05/19 09:50:17;;;;;;;7.07;2.10;;;25.40;67.90;;;;;;5054296;28;20021;-59
2022/05/19 09:52:44;;;;;;;3.80;2.90;;;25.50;68.60;;;;;;5050556;28;20045;-59
2022/05/19 09:55:13;;;;;;;5.13;3.03;;;25.60;65.90;;;;;;5051976;28;20035;-59
2022/05/19 09:57:51;;;;;;;5.43;2.78;;;25.60;65.50;;;;;;5053607;28;20067;-59
2022/05/19 10:00:37;;;;;;;3.47;1.70;;;25.70;65.30;;;;;;5053558;28;20095;-59
2022/05/19 10:03:08;;;;;;;2.08;1.35;;;25.90;65.00;;;;;;5037875;28;20044;-59
2022/05/19 10:05:43;;;;;;;6.07;3.17;;;26.10;65.10;;;;;;5050885;28;20029;-60
2022/05/19 10:08:14;;;;;;;5.47;2.25;;;26.20;63.40;;;;;;5054608;28;20460;-59
2022/05/19 10:10:48;;;;;;;4.55;2.17;;;26.20;64.40;;;;;;5050553;28;20021;-59
2022/05/19 10:13:16;;;;;;;4.00;1.60;;;26.30;64.00;;;;;;5048081;28;20017;-59
2022/05/19 10:16:07;;;;;;;3.40;2.30;;;26.50;64.90;;;;;;5053729;28;20035;-59
2022/05/19 10:18:46;;;;;;;4.13;2.53;;;26.90;64.00;;;;;;5055198;28;20032;-59
2022/05/19 10:21:22;;;;;;;2.25;1.67;;;26.80;62.70;;;;;;5054773;28;20024;-59
2022/05/19 10:24:06;;;;;;;2.60;1.67;;;27.00;63.50;;;;;;5050510;28;20033;-59
2022/05/19 10:26:37;;;;;;;4.05;2.28;;;27.20;63.40;;;;;;5039749;28;20030;-60
2022/05/19 10:32:44;;;;;;;2.67;1.98;;;27.70;60.70;;;;;;5052794;28;20368;-59
2022/05/19 10:35:44;;;;;;;3.50;2.40;;;27.60;60.20;;;;;;5054465;28;20120;-59
2022/05/19 10:38:29;;;;;;;3.55;2.17;;;27.80;60.40;;;;;;5054666;28;20040;-60
2022/05/19 10:41:22;;;;;;;4.00;2.40;;;27.80;60.60;;;;;;5053141;28;20503;-59
2022/05/19 10:44:16;;;;;;;3.65;1.90;;;27.70;59.50;;;;;;5053757;28;20472;-60
2022/05/19 10:47:05;;;;;;;4.93;2.20;;;27.80;60.50;;;;;;5054281;28;20025;-60
2022/05/19 10:49:48;;;;;;;4.18;1.55;;;28.00;60.20;;;;;;5052070;28;20436;-60
2022/05/19 10:52:20;;;;;;;3.45;2.08;;;28.30;59.90;;;;;;5052781;28;20396;-60
2022/05/19 10:55:03;;;;;;;3.55;1.95;;;28.40;59.70;;;;;;5052287;28;20367;-60
2022/05/19 10:57:52;;;;;;;3.42;2.30;;;28.80;59.40;;;;;;5048196;28;20025;-60
2022/05/19 11:00:27;;;;;;;;;;;29.00;58.60;;;;;;5050131;28;20457;-59
2022/05/19 11:03:29;;;;;;;2.55;1.85;;;29.20;58.80;;;;;;5049082;28;19915;-60
2022/05/19 11:06:32;;;;;;;2.65;1.75;;;29.30;58.00;;;;;;5052294;28;20025;-60
2022/05/19 11:09:23;;;;;;;4.35;1.90;;;29.40;57.70;;;;;;5046756;28;20033;-60
2022/05/19 11:12:07;;;;;;;4.72;2.15;;;29.50;58.10;;;;;;5049334;28;20013;-60
2022/05/19 11:14:52;;;;;;;3.95;2.13;;;29.60;57.20;;;;;;5049573;28;20021;-60
2022/05/19 11:17:40;;;;;;;3.33;1.90;;;29.50;56.60;;;;;;5048545;28;20029;-60
2022/05/19 11:20:11;;;;;;;3.47;2.27;;;29.30;57.30;;;;;;5047833;28;20024;-60
2022/05/19 11:22:39;;;;;;;2.95;1.85;;;29.20;57.70;;;;;;5052297;28;20399;-60
2022/05/19 11:28:16;;;;;;;2.78;1.83;;;28.90;58.00;;;;;;5045127;28;20765;-60
2022/05/19 11:30:49;;;;;;;3.45;2.10;;;28.80;58.40;;;;;;5049083;28;20039;-60
2022/05/19 11:33:20;;;;;;;4.68;2.33;;;28.70;58.70;;;;;;5050615;28;20032;-60
2022/05/19 11:35:54;;;;;;;2.10;1.90;;;28.50;58.60;;;;;;5048689;28;20028;-60
2022/05/19 11:38:52;;;;;;;4.70;1.60;;;28.40;59.10;;;;;;5051735;28;20021;-59
2022/05/19 11:41:28;;;;;;;2.20;1.70;;;28.30;59.30;;;;;;5048704;28;20060;-60
2022/05/19 11:44:10;;;;;;;4.13;1.92;;;28.30;59.60;;;;;;5051658;28;20013;-59
2022/05/19 11:47:00;;;;;;;1.83;1.50;;;28.30;59.70;;;;;;5046620;28;20045;-59
2022/05/19 11:55:32;;;;;;;3.22;1.70;;;28.00;60.40;;;;;;5046022;28;20281;-60
2022/05/19 11:58:04;;;;;;;3.17;1.58;;;28.00;60.80;;;;;;5048842;28;20021;-59
2022/05/19 12:00:33;;;;;;;3.28;1.70;;;27.90;61.10;;;;;;5051533;28;20090;-60
2022/05/19 12:03:06;;;;;;;;;;;27.80;61.50;;;;;;5050083;28;20071;-59
2022/05/19 12:05:42;;;;;;;4.50;0.75;;;27.70;61.00;;;;;;5052531;28;19940;-59
2022/05/19 12:08:30;;;;;;;5.65;1.52;;;27.10;61.80;;;;;;5049708;28;20021;-59
2022/05/19 12:11:20;;;;;;;8.55;1.60;;;26.20;65.20;;;;;;5048280;28;20017;-59
2022/05/19 12:13:49;;;;;;;9.93;2.55;;;25.20;68.70;;;;;;5047206;28;20126;-59
2022/05/19 12:16:24;;;;;;;7.15;1.40;;;24.20;72.60;;;;;;5043532;28;20045;-59
2022/05/19 12:19:05;;;;;;;7.28;1.35;;;23.40;75.10;;;;;;5051155;28;20021;-59
2022/05/19 12:21:55;;;;;;;6.20;0.90;;;22.80;75.80;;;;;;5048776;28;20024;-59
2022/05/19 12:24:26;;;;;;;2.67;0.82;;;22.20;77.90;;;;;;5049781;28;20029;-60
2022/05/19 12:27:02;;;;;;;2.72;1.00;;;21.70;80.30;;;;;;5047663;28;20064;-59
2022/05/19 12:29:41;;;;;;;3.60;1.15;;;21.50;81.00;;;;;;5050094;28;20036;-60
2022/05/19 12:32:14;;;;;;;2.70;1.70;;;21.20;81.80;;;;;;5051810;28;20017;-59
2022/05/19 12:35:17;;;;;;;3.65;1.35;;;21.00;83.00;;;;;;5051748;28;20024;-60
2022/05/19 12:37:50;;;;;;;2.47;1.38;;;20.90;84.40;;;;;;5035402;28;20044;-59
2022/05/19 12:40:45;;;;;;;2.58;1.20;;;20.70;85.20;;;;;;5042469;28;20052;-60
2022/05/19 12:43:25;;;;;;;3.78;1.30;;;20.70;84.90;;;;;;5059548;28;20028;-60
2022/05/19 12:45:55;;;;;;;5.15;1.70;;;20.70;85.60;;;;;;5055830;28;20472;-60
2022/05/19 12:48:43;;;;;;;3.63;1.40;;;20.60;86.10;;;;;;5068409;28;20503;-60
2022/05/19 12:51:17;;;;;;;3.30;1.57;;;20.50;86.40;;;;;;5049493;28;20041;-60
2022/05/19 12:53:49;;;;;;;3.03;1.52;;;20.50;87.30;;;;;;5050871;28;20029;-60
2022/05/19 12:56:49;;;;;;;2.55;1.23;;;20.50;87.70;;;;;;5052517;28;20094;-60
2022/05/19 12:59:23;;;;;;;3.20;1.15;;;20.40;87.80;;;;;;5061725;28;20064;-60
2022/05/19 13:01:51;;;;;;;4.97;1.58;;;20.40;88.20;;;;;;5050619;28;20469;-60
2022/05/19 13:04:26;;;;;;;5.15;1.65;;;20.40;88.60;;;;;;5066968;28;20074;-60
2022/05/19 13:06:57;;;;;;;2.35;1.30;;;20.30;89.30;;;;;;5058015;28;20040;-60
2022/05/19 13:09:28;;;;;;;3.72;1.00;;;20.30;90.00;;;;;;5061527;28;20119;-60
2022/05/19 13:11:57;;;;;;;2.13;1.17;;;20.30;90.10;;;;;;5068545;28;20024;-60
2022/05/19 13:14:34;;;;;;;1.65;1.00;;;20.30;90.20;;;;;;5040550;28;20052;-60
2022/05/19 13:17:05;;;;;;;4.30;0.90;;;20.40;90.10;;;;;;5037431;28;20116;-60
2022/05/19 13:19:35;;;;;;;2.33;1.00;;;20.40;90.10;;;;;;5038409;28;20033;-60
2022/05/19 13:22:10;;;;;;;3.58;1.23;;;20.60;90.00;;;;;;5039347;28;20032;-60